SBOSBO WAW / EPWA
Speedbird OnlineSpeedbird Online WAW / EPWA

Warsaw Chopin Airport
15:35 3.1°C

Location Warsaw, Poland
Latitude: 52.1656990051
Longitude: 20.967100143399996
Web Airport Website | Wikipedia
Altitude 110 Meter / 362 Feet
Distance 1,429 KM / 888 Miles
from London.
Time Zone UTC +1 hours (Europe/Warsaw)
Codes IATA: WAW
ICAO: EPWA
Currency £1 equals PLN 5.36
Runways
RunwayLength (m)Surface
112800Concrete
153690Concrete
292800Concrete
333690Concrete
Radio
TypeDescriptionFrequency
APPWARSZAWA APP128.8
ATISATIS120.45
CLDCLNC DEL121.6
DIRWARSZAWA DIR129.375
GNDGND121.9
TWRTWR118.3
Live ATC
METAR EPWA 311430Z 26013KT 9999 BKN035 03/M03 Q1010 NOSIG
TAF TAF EPWA 311130Z 3112/0112 28014KT 9999 BKN025 BECMG 3117/3119 -RA BKN013 TEMPO 3118/3122 4000 -RASN BKN008 BECMG 3122/3124 BKN030 TEMPO 3122/0112 27015G25KT SHRA BKN020CB PROB40 TEMPO 0100/0112 27020G35KT 4000 SHGS BKN007 BKN012CB
Weather As Of 31 Jan 2023 15:35
Description Broken clouds
Wind 28 km/h from West (270°)
Cloud Cover 75%
Precipitation Rain: none, Snow: none
Sunrise 07:18
Sunset 16:19
Lounges Bolero Lounge , Main Terminal
Fantazja Executive Lounge, Main Terminal
Preludium Lounge, Terminal A
Rotations During the last 90 days there were
244 flights from LHR
1 flights from WAW
242 flights to LHR
1 flights to WAW



Support Speedbird Online

© 2017-2023 Speedbird Online